sensor_id;sensor_type;location;lat;lon;timestamp;pressure;altitude;pressure_sealevel;temperature;humidity
45078;BME280;60508;42.622;25.416;2022-10-16T00:00:40;97434.97;;;11.81;61.31
45078;BME280;60508;42.622;25.416;2022-10-16T00:03:08;97429.00;;;11.55;61.33
45078;BME280;60508;42.622;25.416;2022-10-16T00:05:40;97435.75;;;11.58;61.38
45078;BME280;60508;42.622;25.416;2022-10-16T00:08:07;97427.09;;;11.44;61.88
45078;BME280;60508;42.622;25.416;2022-10-16T00:10:34;97433.28;;;11.21;63.11
45078;BME280;60508;42.622;25.416;2022-10-16T00:13:01;97424.03;;;11.28;62.97
45078;BME280;60508;42.622;25.416;2022-10-16T00:15:27;97432.50;;;11.32;62.42
45078;BME280;60508;42.622;25.416;2022-10-16T00:17:53;97432.09;;;11.28;62.39
45078;BME280;60508;42.622;25.416;2022-10-16T00:20:19;97434.56;;;11.30;62.79
45078;BME280;60508;42.622;25.416;2022-10-16T00:23:04;97433.06;;;11.34;62.73
45078;BME280;60508;42.622;25.416;2022-10-16T00:25:31;97437.16;;;11.37;62.59
45078;BME280;60508;42.622;25.416;2022-10-16T00:28:00;97449.88;;;11.18;63.12
45078;BME280;60508;42.622;25.416;2022-10-16T00:30:26;97446.47;;;11.22;62.96
45078;BME280;60508;42.622;25.416;2022-10-16T00:32:53;97451.00;;;10.98;62.65
45078;BME280;60508;42.622;25.416;2022-10-16T00:35:19;97451.16;;;11.15;62.68
45078;BME280;60508;42.622;25.416;2022-10-16T00:37:45;97457.00;;;11.12;63.12
45078;BME280;60508;42.622;25.416;2022-10-16T00:40:11;97453.06;;;11.26;61.77
45078;BME280;60508;42.622;25.416;2022-10-16T00:42:39;97450.00;;;11.23;61.93
45078;BME280;60508;42.622;25.416;2022-10-16T00:45:06;97451.84;;;11.10;62.78
45078;BME280;60508;42.622;25.416;2022-10-16T00:47:36;97451.91;;;11.34;62.30
45078;BME280;60508;42.622;25.416;2022-10-16T00:50:12;97458.06;;;10.81;62.79
45078;BME280;60508;42.622;25.416;2022-10-16T00:52:42;97467.19;;;10.80;62.90
45078;BME280;60508;42.622;25.416;2022-10-16T00:55:10;97473.00;;;10.76;62.42
45078;BME280;60508;42.622;25.416;2022-10-16T00:57:37;97475.06;;;10.93;61.97
45078;BME280;60508;42.622;25.416;2022-10-16T01:00:06;97472.44;;;11.05;62.13
45078;BME280;60508;42.622;25.416;2022-10-16T01:02:33;97467.50;;;11.02;61.61
45078;BME280;60508;42.622;25.416;2022-10-16T01:05:00;97474.44;;;11.09;61.03
45078;BME280;60508;42.622;25.416;2022-10-16T01:15:37;97476.16;;;10.73;62.24
45078;BME280;60508;42.622;25.416;2022-10-16T01:18:33;97483.34;;;10.61;62.75
45078;BME280;60508;42.622;25.416;2022-10-16T01:21:05;97481.16;;;10.70;62.74
45078;BME280;60508;42.622;25.416;2022-10-16T01:24:00;97480.88;;;10.59;64.44
45078;BME280;60508;42.622;25.416;2022-10-16T01:29:40;97476.94;;;10.44;64.30
45078;BME280;60508;42.622;25.416;2022-10-16T01:37:49;97478.44;;;10.39;63.76
45078;BME280;60508;42.622;25.416;2022-10-16T01:40:18;97478.66;;;10.56;63.43
45078;BME280;60508;42.622;25.416;2022-10-16T01:42:52;97479.47;;;10.57;62.96
45078;BME280;60508;42.622;25.416;2022-10-16T01:45:21;97488.94;;;10.59;63.15
45078;BME280;60508;42.622;25.416;2022-10-16T01:47:49;97474.69;;;10.59;63.21
45078;BME280;60508;42.622;25.416;2022-10-16T01:50:18;97487.06;;;10.60;63.00
45078;BME280;60508;42.622;25.416;2022-10-16T01:52:48;97484.94;;;10.50;62.71
45078;BME280;60508;42.622;25.416;2022-10-16T01:55:19;97484.69;;;10.15;64.30
45078;BME280;60508;42.622;25.416;2022-10-16T01:57:48;97487.31;;;9.96;63.52
45078;BME280;60508;42.622;25.416;2022-10-16T02:00:17;97491.53;;;9.67;64.62
45078;BME280;60508;42.622;25.416;2022-10-16T02:02:46;97487.31;;;9.96;64.86
45078;BME280;60508;42.622;25.416;2022-10-16T02:05:20;97490.72;;;10.10;64.87
45078;BME280;60508;42.622;25.416;2022-10-16T02:07:48;97493.88;;;10.26;64.74
45078;BME280;60508;42.622;25.416;2022-10-16T02:10:15;97498.31;;;10.32;64.11
45078;BME280;60508;42.622;25.416;2022-10-16T02:12:45;97504.56;;;9.89;63.53
45078;BME280;60508;42.622;25.416;2022-10-16T02:15:13;97499.84;;;9.59;65.12
45078;BME280;60508;42.622;25.416;2022-10-16T02:17:39;97504.44;;;9.77;65.30
45078;BME280;60508;42.622;25.416;2022-10-16T02:20:06;97506.00;;;9.66;63.98
45078;BME280;60508;42.622;25.416;2022-10-16T02:22:35;97504.59;;;9.31;65.34
45078;BME280;60508;42.622;25.416;2022-10-16T02:25:05;97507.44;;;9.43;65.52
45078;BME280;60508;42.622;25.416;2022-10-16T02:27:33;97504.34;;;9.65;65.66
45078;BME280;60508;42.622;25.416;2022-10-16T02:30:15;97499.31;;;9.75;64.88
45078;BME280;60508;42.622;25.416;2022-10-16T02:32:46;97506.09;;;9.78;64.52
45078;BME280;60508;42.622;25.416;2022-10-16T02:35:16;97503.53;;;9.64;65.85
45078;BME280;60508;42.622;25.416;2022-10-16T02:37:43;97505.84;;;9.61;65.32
45078;BME280;60508;42.622;25.416;2022-10-16T02:40:11;97503.19;;;9.54;65.94
45078;BME280;60508;42.622;25.416;2022-10-16T02:42:39;97508.19;;;9.76;65.34
45078;BME280;60508;42.622;25.416;2022-10-16T02:45:07;97509.53;;;9.85;65.19
45078;BME280;60508;42.622;25.416;2022-10-16T02:47:34;97509.09;;;9.88;64.67
45078;BME280;60508;42.622;25.416;2022-10-16T02:50:00;97517.84;;;9.83;64.71
45078;BME280;60508;42.622;25.416;2022-10-16T02:52:26;97513.72;;;9.56;65.62
45078;BME280;60508;42.622;25.416;2022-10-16T02:54:52;97510.38;;;9.60;65.42
45078;BME280;60508;42.622;25.416;2022-10-16T02:57:19;97512.41;;;9.65;65.44
45078;BME280;60508;42.622;25.416;2022-10-16T02:59:44;97516.31;;;9.69;65.71
45078;BME280;60508;42.622;25.416;2022-10-16T03:02:10;97517.59;;;9.85;63.93
45078;BME280;60508;42.622;25.416;2022-10-16T03:04:37;97519.22;;;9.67;63.39
45078;BME280;60508;42.622;25.416;2022-10-16T03:07:03;97534.19;;;9.75;64.04
45078;BME280;60508;42.622;25.416;2022-10-16T03:09:29;97535.63;;;9.78;64.67
45078;BME280;60508;42.622;25.416;2022-10-16T03:11:56;97541.53;;;9.61;64.57
45078;BME280;60508;42.622;25.416;2022-10-16T03:14:22;97530.75;;;9.68;64.90
45078;BME280;60508;42.622;25.416;2022-10-16T03:16:48;97546.47;;;9.90;64.47
45078;BME280;60508;42.622;25.416;2022-10-16T03:19:16;97539.31;;;9.83;62.97
45078;BME280;60508;42.622;25.416;2022-10-16T03:21:42;97538.03;;;9.86;63.19
45078;BME280;60508;42.622;25.416;2022-10-16T03:24:08;97544.59;;;9.65;64.77
45078;BME280;60508;42.622;25.416;2022-10-16T03:26:35;97540.75;;;9.54;64.83
45078;BME280;60508;42.622;25.416;2022-10-16T03:29:00;97546.53;;;9.58;64.44
45078;BME280;60508;42.622;25.416;2022-10-16T03:31:29;97543.78;;;9.64;64.84
45078;BME280;60508;42.622;25.416;2022-10-16T03:33:56;97535.91;;;9.69;65.48
45078;BME280;60508;42.622;25.416;2022-10-16T03:36:22;97548.31;;;9.64;64.99
45078;BME280;60508;42.622;25.416;2022-10-16T03:38:48;97542.47;;;9.74;64.57
45078;BME280;60508;42.622;25.416;2022-10-16T03:41:14;97549.84;;;9.78;64.93
45078;BME280;60508;42.622;25.416;2022-10-16T03:43:40;97552.47;;;9.85;65.06
45078;BME280;60508;42.622;25.416;2022-10-16T03:46:06;97552.94;;;9.82;65.60
45078;BME280;60508;42.622;25.416;2022-10-16T03:48:32;97559.34;;;9.81;64.46
45078;BME280;60508;42.622;25.416;2022-10-16T03:50:58;97558.81;;;9.72;64.98
45078;BME280;60508;42.622;25.416;2022-10-16T03:53:24;97557.41;;;9.88;64.43
45078;BME280;60508;42.622;25.416;2022-10-16T03:55:51;97552.38;;;9.98;63.27
45078;BME280;60508;42.622;25.416;2022-10-16T03:58:17;97560.66;;;9.40;65.11
45078;BME280;60508;42.622;25.416;2022-10-16T04:00:44;97575.91;;;9.46;65.91
45078;BME280;60508;42.622;25.416;2022-10-16T04:03:10;97561.13;;;9.62;65.38
45078;BME280;60508;42.622;25.416;2022-10-16T04:05:37;97562.56;;;9.64;66.07
45078;BME280;60508;42.622;25.416;2022-10-16T04:08:03;97563.94;;;9.48;66.29
45078;BME280;60508;42.622;25.416;2022-10-16T04:10:29;97578.53;;;9.53;66.26
45078;BME280;60508;42.622;25.416;2022-10-16T04:12:55;97560.16;;;9.56;66.23
45078;BME280;60508;42.622;25.416;2022-10-16T04:15:25;97564.91;;;9.54;66.46
45078;BME280;60508;42.622;25.416;2022-10-16T04:17:51;97562.38;;;9.34;67.15
45078;BME280;60508;42.622;25.416;2022-10-16T04:20:17;97557.34;;;9.44;66.65
45078;BME280;60508;42.622;25.416;2022-10-16T04:22:44;97559.97;;;9.51;66.31
45078;BME280;60508;42.622;25.416;2022-10-16T04:25:10;97570.94;;;9.49;67.19
45078;BME280;60508;42.622;25.416;2022-10-16T04:27:38;97573.25;;;9.39;67.01
45078;BME280;60508;42.622;25.416;2022-10-16T04:30:04;97570.41;;;9.34;66.66
45078;BME280;60508;42.622;25.416;2022-10-16T04:32:30;97569.38;;;9.35;66.62
45078;BME280;60508;42.622;25.416;2022-10-16T04:34:56;97566.91;;;8.95;67.78
45078;BME280;60508;42.622;25.416;2022-10-16T04:37:25;97566.97;;;9.27;66.89
45078;BME280;60508;42.622;25.416;2022-10-16T04:39:53;97568.00;;;9.26;67.25
45078;BME280;60508;42.622;25.416;2022-10-16T04:42:20;97577.09;;;9.18;66.33
45078;BME280;60508;42.622;25.416;2022-10-16T04:44:46;97574.06;;;9.08;67.55
45078;BME280;60508;42.622;25.416;2022-10-16T04:47:12;97571.44;;;8.94;67.74
45078;BME280;60508;42.622;25.416;2022-10-16T04:49:38;97573.91;;;8.96;67.18
45078;BME280;60508;42.622;25.416;2022-10-16T04:52:04;97574.72;;;9.03;67.46
45078;BME280;60508;42.622;25.416;2022-10-16T04:54:30;97586.28;;;9.36;66.46
45078;BME280;60508;42.622;25.416;2022-10-16T04:56:56;97585.22;;;9.43;66.05
45078;BME280;60508;42.622;25.416;2022-10-16T04:59:23;97588.94;;;9.42;65.93
45078;BME280;60508;42.622;25.416;2022-10-16T05:06:08;97594.56;;;9.66;64.80
45078;BME280;60508;42.622;25.416;2022-10-16T05:08:34;97603.53;;;9.53;65.27
45078;BME280;60508;42.622;25.416;2022-10-16T05:11:00;97605.78;;;9.56;65.19
45078;BME280;60508;42.622;25.416;2022-10-16T05:13:27;97611.13;;;9.56;65.01
45078;BME280;60508;42.622;25.416;2022-10-16T05:15:53;97605.03;;;9.42;65.40
45078;BME280;60508;42.622;25.416;2022-10-16T05:18:19;97604.16;;;9.48;65.44
45078;BME280;60508;42.622;25.416;2022-10-16T05:20:45;97602.81;;;9.64;64.82
45078;BME280;60508;42.622;25.416;2022-10-16T05:23:11;97584.53;;;9.55;63.81
45078;BME280;60508;42.622;25.416;2022-10-16T05:25:37;97605.34;;;9.59;64.18
45078;BME280;60508;42.622;25.416;2022-10-16T05:28:03;97610.50;;;9.54;64.58
45078;BME280;60508;42.622;25.416;2022-10-16T05:30:29;97590.53;;;9.50;65.02
45078;BME280;60508;42.622;25.416;2022-10-16T05:32:55;97603.41;;;9.66;64.36
45078;BME280;60508;42.622;25.416;2022-10-16T05:35:21;97604.44;;;9.72;64.42
45078;BME280;60508;42.622;25.416;2022-10-16T05:37:48;97605.69;;;9.69;64.30
45078;BME280;60508;42.622;25.416;2022-10-16T05:40:14;97606.47;;;9.70;65.00
45078;BME280;60508;42.622;25.416;2022-10-16T05:42:41;97616.75;;;9.80;65.03
45078;BME280;60508;42.622;25.416;2022-10-16T05:45:09;97622.09;;;9.80;64.88
45078;BME280;60508;42.622;25.416;2022-10-16T05:47:36;97635.47;;;9.86;65.77
45078;BME280;60508;42.622;25.416;2022-10-16T05:50:02;97621.41;;;9.91;64.94
45078;BME280;60508;42.622;25.416;2022-10-16T05:52:29;97635.25;;;9.88;64.78
45078;BME280;60508;42.622;25.416;2022-10-16T05:54:55;97649.94;;;10.11;64.02
45078;BME280;60508;42.622;25.416;2022-10-16T05:57:22;97640.16;;;10.23;64.38
45078;BME280;60508;42.622;25.416;2022-10-16T05:59:48;97640.31;;;10.28;63.58
45078;BME280;60508;42.622;25.416;2022-10-16T06:02:16;97650.63;;;10.06;64.32
45078;BME280;60508;42.622;25.416;2022-10-16T06:04:42;97645.41;;;9.86;65.69
45078;BME280;60508;42.622;25.416;2022-10-16T06:07:08;97641.34;;;10.34;64.84
45078;BME280;60508;42.622;25.416;2022-10-16T06:09:33;97641.72;;;10.56;64.04
45078;BME280;60508;42.622;25.416;2022-10-16T06:12:00;97635.53;;;10.37;63.71
45078;BME280;60508;42.622;25.416;2022-10-16T06:14:26;97644.53;;;10.68;64.11
45078;BME280;60508;42.622;25.416;2022-10-16T06:16:52;97651.78;;;10.86;62.92
45078;BME280;60508;42.622;25.416;2022-10-16T06:19:18;97649.38;;;10.96;62.51
45078;BME280;60508;42.622;25.416;2022-10-16T06:21:44;97656.25;;;11.10;62.64
45078;BME280;60508;42.622;25.416;2022-10-16T06:24:10;97652.81;;;11.03;61.90
45078;BME280;60508;42.622;25.416;2022-10-16T06:26:37;97661.53;;;11.17;61.87
45078;BME280;60508;42.622;25.416;2022-10-16T06:29:03;97653.38;;;11.24;61.70
45078;BME280;60508;42.622;25.416;2022-10-16T06:31:29;97657.88;;;11.30;61.85
45078;BME280;60508;42.622;25.416;2022-10-16T06:33:57;97665.13;;;11.29;61.56
45078;BME280;60508;42.622;25.416;2022-10-16T06:36:23;97659.94;;;11.46;61.25
45078;BME280;60508;42.622;25.416;2022-10-16T06:38:50;97665.50;;;11.63;61.29
45078;BME280;60508;42.622;25.416;2022-10-16T06:41:19;97668.91;;;11.70;60.92
45078;BME280;60508;42.622;25.416;2022-10-16T06:43:45;97671.28;;;11.97;64.39
45078;BME280;60508;42.622;25.416;2022-10-16T06:46:14;97677.75;;;12.20;62.98
45078;BME280;60508;42.622;25.416;2022-10-16T06:48:40;97673.22;;;12.44;63.15
45078;BME280;60508;42.622;25.416;2022-10-16T06:51:10;97672.28;;;12.62;62.00
45078;BME280;60508;42.622;25.416;2022-10-16T06:53:39;97682.16;;;12.68;60.57
45078;BME280;60508;42.622;25.416;2022-10-16T06:56:06;97683.53;;;12.71;60.41
45078;BME280;60508;42.622;25.416;2022-10-16T06:58:33;97686.34;;;12.88;60.22
45078;BME280;60508;42.622;25.416;2022-10-16T07:01:00;97683.16;;;13.03;60.01
45078;BME280;60508;42.622;25.416;2022-10-16T07:03:26;97690.75;;;13.18;59.41
45078;BME280;60508;42.622;25.416;2022-10-16T07:05:52;97698.50;;;13.14;59.58
45078;BME280;60508;42.622;25.416;2022-10-16T07:08:18;97695.22;;;13.36;58.85
45078;BME280;60508;42.622;25.416;2022-10-16T07:10:44;97694.91;;;13.61;58.14
45078;BME280;60508;42.622;25.416;2022-10-16T07:13:09;97700.75;;;13.69;56.69
45078;BME280;60508;42.622;25.416;2022-10-16T07:15:39;97704.53;;;13.85;56.74
45078;BME280;60508;42.622;25.416;2022-10-16T07:18:05;97696.81;;;13.89;57.29
45078;BME280;60508;42.622;25.416;2022-10-16T07:20:31;97698.38;;;14.02;56.60
45078;BME280;60508;42.622;25.416;2022-10-16T07:22:58;97703.78;;;14.02;56.05
45078;BME280;60508;42.622;25.416;2022-10-16T07:25:24;97694.41;;;14.21;56.01
45078;BME280;60508;42.622;25.416;2022-10-16T07:27:49;97693.75;;;14.31;56.13
45078;BME280;60508;42.622;25.416;2022-10-16T07:30:16;97697.03;;;14.50;55.84
45078;BME280;60508;42.622;25.416;2022-10-16T07:32:42;97695.16;;;14.68;54.32
45078;BME280;60508;42.622;25.416;2022-10-16T07:35:08;97694.97;;;14.91;52.58
45078;BME280;60508;42.622;25.416;2022-10-16T07:37:35;97694.16;;;15.13;52.24
45078;BME280;60508;42.622;25.416;2022-10-16T07:40:01;97691.78;;;15.17;51.28
45078;BME280;60508;42.622;25.416;2022-10-16T07:42:27;97694.19;;;15.35;50.93
45078;BME280;60508;42.622;25.416;2022-10-16T07:44:53;97696.19;;;15.67;51.00
45078;BME280;60508;42.622;25.416;2022-10-16T07:47:19;97675.88;;;15.69;48.53
45078;BME280;60508;42.622;25.416;2022-10-16T07:49:46;97691.03;;;15.87;48.76
45078;BME280;60508;42.622;25.416;2022-10-16T07:52:13;97690.44;;;16.13;47.96
45078;BME280;60508;42.622;25.416;2022-10-16T07:54:39;97686.69;;;16.14;46.65
45078;BME280;60508;42.622;25.416;2022-10-16T07:57:05;97699.75;;;16.22;47.23
45078;BME280;60508;42.622;25.416;2022-10-16T07:59:31;97694.28;;;16.44;45.63
45078;BME280;60508;42.622;25.416;2022-10-16T08:01:57;97693.31;;;16.60;46.09
45078;BME280;60508;42.622;25.416;2022-10-16T08:04:23;97693.41;;;16.76;46.21
45078;BME280;60508;42.622;25.416;2022-10-16T08:06:49;97687.34;;;16.96;43.83
45078;BME280;60508;42.622;25.416;2022-10-16T08:09:15;97687.38;;;17.06;43.79
45078;BME280;60508;42.622;25.416;2022-10-16T08:11:42;97690.44;;;17.20;43.68
45078;BME280;60508;42.622;25.416;2022-10-16T08:14:08;97670.25;;;17.64;44.14
45078;BME280;60508;42.622;25.416;2022-10-16T08:16:34;97687.22;;;18.02;41.05
45078;BME280;60508;42.622;25.416;2022-10-16T08:19:00;97684.75;;;17.95;40.41
45078;BME280;60508;42.622;25.416;2022-10-16T08:21:27;97684.28;;;18.39;40.27
45078;BME280;60508;42.622;25.416;2022-10-16T08:23:53;97683.38;;;19.11;38.77
45078;BME280;60508;42.622;25.416;2022-10-16T08:26:20;97676.53;;;19.89;36.38
45078;BME280;60508;42.622;25.416;2022-10-16T08:28:49;97664.59;;;20.19;35.50
45078;BME280;60508;42.622;25.416;2022-10-16T08:31:16;97675.72;;;21.21;33.67
45078;BME280;60508;42.622;25.416;2022-10-16T08:33:44;97675.84;;;22.54;31.27
45078;BME280;60508;42.622;25.416;2022-10-16T08:36:13;97674.13;;;22.58;30.99
45078;BME280;60508;42.622;25.416;2022-10-16T08:38:40;97681.84;;;23.03;29.81
45078;BME280;60508;42.622;25.416;2022-10-16T08:43:40;97677.44;;;24.36;28.24
45078;BME280;60508;42.622;25.416;2022-10-16T08:49:11;97682.44;;;26.08;25.29
45078;BME280;60508;42.622;25.416;2022-10-16T08:51:39;97686.88;;;27.77;23.75
45078;BME280;60508;42.622;25.416;2022-10-16T08:54:26;97681.00;;;28.30;22.53
45078;BME280;60508;42.622;25.416;2022-10-16T08:56:55;97685.31;;;29.06;21.70
45078;BME280;60508;42.622;25.416;2022-10-16T08:59:21;97682.47;;;30.14;20.53
45078;BME280;60508;42.622;25.416;2022-10-16T09:01:50;97687.25;;;30.42;20.11
45078;BME280;60508;42.622;25.416;2022-10-16T09:04:32;97690.28;;;31.09;19.44
45078;BME280;60508;42.622;25.416;2022-10-16T09:10:15;97690.31;;;30.81;19.06
45078;BME280;60508;42.622;25.416;2022-10-16T09:18:30;97687.31;;;34.18;16.20
45078;BME280;60508;42.622;25.416;2022-10-16T09:21:09;97693.38;;;34.24;16.16
45078;BME280;60508;42.622;25.416;2022-10-16T09:23:37;97696.25;;;34.61;15.71
45078;BME280;60508;42.622;25.416;2022-10-16T09:26:04;97696.16;;;34.88;15.30
45078;BME280;60508;42.622;25.416;2022-10-16T09:28:31;97686.50;;;34.78;15.54
45078;BME280;60508;42.622;25.416;2022-10-16T09:30:57;97692.78;;;34.71;15.27
45078;BME280;60508;42.622;25.416;2022-10-16T09:33:28;97687.59;;;35.49;15.30
45078;BME280;60508;42.622;25.416;2022-10-16T09:35:56;97690.19;;;34.89;15.27
45078;BME280;60508;42.622;25.416;2022-10-16T09:40:56;97694.78;;;39.11;12.50
45078;BME280;60508;42.622;25.416;2022-10-16T09:44:03;97704.50;;;40.04;11.81
45078;BME280;60508;42.622;25.416;2022-10-16T09:46:33;97691.06;;;38.62;12.61
45078;BME280;60508;42.622;25.416;2022-10-16T09:49:03;97694.00;;;38.04;12.62
45078;BME280;60508;42.622;25.416;2022-10-16T09:53:58;97690.94;;;39.43;11.97
45078;BME280;60508;42.622;25.416;2022-10-16T09:56:27;97685.75;;;39.41;12.21
45078;BME280;60508;42.622;25.416;2022-10-16T09:58:59;97692.34;;;40.49;11.84
45078;BME280;60508;42.622;25.416;2022-10-16T10:04:04;97682.38;;;41.30;10.38
45078;BME280;60508;42.622;25.416;2022-10-16T10:06:33;97665.38;;;42.04;9.94
45078;BME280;60508;42.622;25.416;2022-10-16T10:09:25;97672.59;;;41.38;10.19
45078;BME280;60508;42.622;25.416;2022-10-16T10:11:54;97662.94;;;39.77;11.16
45078;BME280;60508;42.622;25.416;2022-10-16T10:19:58;97670.91;;;39.86;10.96
45078;BME280;60508;42.622;25.416;2022-10-16T10:30:34;97654.25;;;43.27;9.60
45078;BME280;60508;42.622;25.416;2022-10-16T10:33:24;97653.31;;;41.33;9.83
45078;BME280;60508;42.622;25.416;2022-10-16T10:36:03;97654.50;;;43.65;9.19
45078;BME280;60508;42.622;25.416;2022-10-16T10:47:05;97634.38;;;37.78;11.70
45078;BME280;60508;42.622;25.416;2022-10-16T10:49:21;97629.16;;;37.77;12.10
45078;BME280;60508;42.622;25.416;2022-10-16T10:52:13;97634.03;;;36.02;12.64
45078;BME280;60508;42.622;25.416;2022-10-16T11:03:23;97628.00;;;41.29;10.40
45078;BME280;60508;42.622;25.416;2022-10-16T11:05:59;97626.44;;;42.56;9.47
45078;BME280;60508;42.622;25.416;2022-10-16T11:08:32;97629.81;;;42.47;8.84
45078;BME280;60508;42.622;25.416;2022-10-16T11:11:41;97620.84;;;40.39;9.99
45078;BME280;60508;42.622;25.416;2022-10-16T11:14:15;97625.13;;;39.37;10.60
45078;BME280;60508;42.622;25.416;2022-10-16T11:16:52;97619.44;;;39.86;10.33
45078;BME280;60508;42.622;25.416;2022-10-16T11:22:17;97612.78;;;37.32;11.55
45078;BME280;60508;42.622;25.416;2022-10-16T11:25:02;97607.41;;;38.21;11.61
45078;BME280;60508;42.622;25.416;2022-10-16T11:30:25;97614.47;;;40.93;10.01
45078;BME280;60508;42.622;25.416;2022-10-16T11:33:20;97613.44;;;39.84;9.97
45078;BME280;60508;42.622;25.416;2022-10-16T11:35:55;97601.38;;;38.93;11.25
45078;BME280;60508;42.622;25.416;2022-10-16T11:38:49;97603.44;;;40.75;10.00
45078;BME280;60508;42.622;25.416;2022-10-16T11:41:42;97596.28;;;41.45;9.80
45078;BME280;60508;42.622;25.416;2022-10-16T11:49:53;97603.97;;;40.94;9.88
45078;BME280;60508;42.622;25.416;2022-10-16T11:52:58;97611.38;;;40.84;10.07
45078;BME280;60508;42.622;25.416;2022-10-16T11:55:34;97614.59;;;42.61;9.23
45078;BME280;60508;42.622;25.416;2022-10-16T12:01:10;97623.06;;;43.92;8.21
45078;BME280;60508;42.622;25.416;2022-10-16T12:04:09;97616.03;;;46.34;7.56
45078;BME280;60508;42.622;25.416;2022-10-16T12:09:30;97629.03;;;45.78;7.38
45078;BME280;60508;42.622;25.416;2022-10-16T12:11:57;97631.47;;;44.25;7.64
45078;BME280;60508;42.622;25.416;2022-10-16T12:17:03;97623.53;;;40.15;9.98
45078;BME280;60508;42.622;25.416;2022-10-16T12:19:31;97621.44;;;40.23;9.88
45078;BME280;60508;42.622;25.416;2022-10-16T12:22:02;97627.88;;;40.24;9.76
45078;BME280;60508;42.622;25.416;2022-10-16T12:24:36;97620.84;;;41.92;8.96
45078;BME280;60508;42.622;25.416;2022-10-16T12:27:05;97625.75;;;42.08;8.60
45078;BME280;60508;42.622;25.416;2022-10-16T12:32:05;97614.66;;;43.10;8.36
45078;BME280;60508;42.622;25.416;2022-10-16T12:34:45;97616.84;;;44.27;7.59
45078;BME280;60508;42.622;25.416;2022-10-16T12:37:15;97616.72;;;43.88;7.84
45078;BME280;60508;42.622;25.416;2022-10-16T12:39:46;97623.13;;;44.86;7.69
45078;BME280;60508;42.622;25.416;2022-10-16T12:44:55;97627.72;;;44.28;7.15
45078;BME280;60508;42.622;25.416;2022-10-16T12:47:49;97628.16;;;43.98;7.06
45078;BME280;60508;42.622;25.416;2022-10-16T12:50:35;97617.06;;;41.55;8.53
45078;BME280;60508;42.622;25.416;2022-10-16T12:53:03;97615.44;;;38.93;9.61
45078;BME280;60508;42.622;25.416;2022-10-16T12:55:49;97613.84;;;38.10;9.34
45078;BME280;60508;42.622;25.416;2022-10-16T12:59:02;97618.03;;;39.21;9.00
45078;BME280;60508;42.622;25.416;2022-10-16T13:01:41;97625.91;;;38.85;8.82
45078;BME280;60508;42.622;25.416;2022-10-16T13:07:20;97637.81;;;38.36;9.36
45078;BME280;60508;42.622;25.416;2022-10-16T13:18:16;97640.72;;;34.86;11.99
45078;BME280;60508;42.622;25.416;2022-10-16T13:26:46;97635.16;;;32.92;13.59
45078;BME280;60508;42.622;25.416;2022-10-16T13:29:15;97632.56;;;32.80;13.98
45078;BME280;60508;42.622;25.416;2022-10-16T13:31:42;97628.09;;;32.75;13.83
45078;BME280;60508;42.622;25.416;2022-10-16T13:34:15;97625.41;;;32.39;14.51
45078;BME280;60508;42.622;25.416;2022-10-16T13:36:53;97625.84;;;32.02;14.39
45078;BME280;60508;42.622;25.416;2022-10-16T13:39:27;97632.38;;;31.23;15.10
45078;BME280;60508;42.622;25.416;2022-10-16T13:42:06;97638.72;;;31.08;14.82
45078;BME280;60508;42.622;25.416;2022-10-16T13:44:40;97636.88;;;30.84;14.84
45078;BME280;60508;42.622;25.416;2022-10-16T13:47:22;97631.44;;;30.02;15.63
45078;BME280;60508;42.622;25.416;2022-10-16T13:52:25;97641.56;;;29.21;16.55
45078;BME280;60508;42.622;25.416;2022-10-16T13:54:51;97639.31;;;28.56;16.66
45078;BME280;60508;42.622;25.416;2022-10-16T13:57:17;97643.84;;;28.39;16.87
45078;BME280;60508;42.622;25.416;2022-10-16T13:59:43;97637.16;;;28.40;16.86
45078;BME280;60508;42.622;25.416;2022-10-16T14:02:25;97636.94;;;28.12;16.93
45078;BME280;60508;42.622;25.416;2022-10-16T14:04:52;97644.13;;;27.83;17.13
45078;BME280;60508;42.622;25.416;2022-10-16T14:07:31;97641.34;;;27.62;17.53
45078;BME280;60508;42.622;25.416;2022-10-16T14:10:05;97643.78;;;27.85;17.34
45078;BME280;60508;42.622;25.416;2022-10-16T14:12:32;97645.97;;;27.49;17.25
45078;BME280;60508;42.622;25.416;2022-10-16T14:15:00;97658.69;;;27.63;17.48
45078;BME280;60508;42.622;25.416;2022-10-16T14:17:31;97663.84;;;27.73;17.75
45078;BME280;60508;42.622;25.416;2022-10-16T14:20:00;97659.44;;;27.51;18.15
45078;BME280;60508;42.622;25.416;2022-10-16T14:24:56;97660.31;;;27.64;17.60
45078;BME280;60508;42.622;25.416;2022-10-16T14:27:36;97653.81;;;27.68;17.94
45078;BME280;60508;42.622;25.416;2022-10-16T14:30:18;97666.53;;;28.12;17.87
45078;BME280;60508;42.622;25.416;2022-10-16T14:32:59;97667.22;;;28.42;17.26
45078;BME280;60508;42.622;25.416;2022-10-16T14:35:33;97667.22;;;28.63;17.25
45078;BME280;60508;42.622;25.416;2022-10-16T14:38:01;97668.44;;;28.87;17.07
45078;BME280;60508;42.622;25.416;2022-10-16T14:40:33;97672.78;;;29.21;16.60
45078;BME280;60508;42.622;25.416;2022-10-16T14:43:01;97672.59;;;29.26;16.68
45078;BME280;60508;42.622;25.416;2022-10-16T14:45:30;97673.78;;;29.04;16.83
45078;BME280;60508;42.622;25.416;2022-10-16T14:47:58;97680.88;;;28.81;17.51
45078;BME280;60508;42.622;25.416;2022-10-16T14:50:26;97678.38;;;28.12;18.45
45078;BME280;60508;42.622;25.416;2022-10-16T14:52:53;97688.56;;;27.69;18.56
45078;BME280;60508;42.622;25.416;2022-10-16T14:55:20;97687.69;;;27.01;19.54
45078;BME280;60508;42.622;25.416;2022-10-16T14:57:46;97683.38;;;26.56;20.41
45078;BME280;60508;42.622;25.416;2022-10-16T15:00:19;97679.19;;;26.06;21.26
45078;BME280;60508;42.622;25.416;2022-10-16T15:02:47;97678.84;;;26.08;20.94
45078;BME280;60508;42.622;25.416;2022-10-16T15:05:25;97675.63;;;26.23;20.92
45078;BME280;60508;42.622;25.416;2022-10-16T15:07:53;97685.66;;;26.54;20.60
45078;BME280;60508;42.622;25.416;2022-10-16T15:10:21;97682.91;;;26.71;20.75